St. Elmo — WDG2405 — position and weather

sailwx.info

Track history (hours):
 
Tides and Currents Weather Stations Pressure Air Temp Water Temp Dewpoint Dewpoint Depression Visibility Wind Speed Wind Dir Waves Ship Positions

St. Elmo

Owner: Marquette Transportation Company Gulf-Inland, LLC, Jefferson, LA. More information available from US FCC via Universal Licensing System and Coast Guard Vessel Documentation Center.

Last reported at 2015-May-21 01:33 UTC. Time now 2015-May-27 18:03 UTC.
Position N 29°35' W 094°56'.

; draft 3.2 m.

MMSI: 367515330.

Date/timePositionNaut miles runAvg speedWind from/ knotsBaromVisibWave heightAir tempDewpointWater temp
2015-May-21 01:33N 29°35' W 094°56'5 4.9
2015-May-21 00:33N 29°37' W 095°01'0 0.0
2015-May-20 23:33N 29°37' W 095°01'0 0.0
2015-May-20 22:33N 29°37' W 095°01'0 0.0
2015-May-20 21:33N 29°37' W 095°01'0 0.0
2015-May-20 20:33N 29°37' W 095°01'0 0.0
2015-May-20 19:31N 29°37' W 095°01'0 0.0
2015-May-20 18:33N 29°37' W 095°01'0 0.0
2015-May-20 17:33N 29°37' W 095°01'0 0.0
2015-May-20 16:23N 29°37' W 095°01'0 0.0
2015-May-20 15:33N 29°37' W 095°01'0 0.0
2015-May-20 14:33N 29°37' W 095°01'0 0.0
2015-May-20 13:33N 29°37' W 095°01'0 0.0
2015-May-20 12:33N 29°37' W 095°01'0 0.0
2015-May-20 11:33N 29°37' W 095°01'0 0.0
2015-May-20 10:33N 29°37' W 095°01'0 0.0
2015-May-20 09:33N 29°37' W 095°01'0 0.0
2015-May-20 08:33N 29°37' W 095°01'0 0.0
2015-May-20 07:33N 29°37' W 095°01'0 0.0
2015-May-20 06:33N 29°37' W 095°01'0 0.0
2015-May-20 05:33N 29°37' W 095°01'0 0.0
2015-May-20 04:33N 29°37' W 095°01'0 0.0
2015-May-20 03:33N 29°37' W 095°01'0 0.0
2015-May-20 02:33N 29°37' W 095°01'0 0.0
2015-May-20 01:33N 29°37' W 095°01'3 3.0
2015-May-20 00:33N 29°37' W 094°58'8 7.3
2015-May-19 23:27N 29°30' W 094°52'  
2015-May-16 22:27N 29°33' W 094°55'6 6.4
2015-May-16 21:33N 29°37' W 094°60'1 0.7
2015-May-16 19:33N 29°37' W 095°01'0 0.0
2015-May-16 18:33N 29°37' W 095°01'0 0.0
2015-May-16 17:33N 29°37' W 095°01'0 0.0
2015-May-16 16:33N 29°37' W 095°01'0 0.0
2015-May-16 15:33N 29°37' W 095°01'0 0.0
2015-May-16 14:33N 29°37' W 095°01'0 0.0
2015-May-16 13:33N 29°37' W 095°01'0 0.0
2015-May-16 12:33N 29°37' W 095°01'0 0.0
2015-May-16 11:33N 29°37' W 095°01'0 0.0
2015-May-16 10:33N 29°37' W 095°01'0 0.5
2015-May-16 09:33N 29°37' W 095°01'7 6.9
2015-May-16 08:33N 29°33' W 094°54'0 0.0
2015-May-16 00:06N 29°33' W 094°55'4 7.7
2015-May-15 23:33N 29°37' W 094°57'4 3.6
2015-May-15 22:33N 29°37' W 095°01'0 0.0
2015-May-15 21:33N 29°37' W 095°01'0 0.0
2015-May-15 20:33N 29°37' W 095°01'0 0.0
2015-May-15 19:33N 29°37' W 095°01'0 0.0
2015-May-15 18:32N 29°37' W 095°01'0 0.0
2015-May-15 17:33N 29°37' W 095°01'0 0.0
2015-May-15 16:33N 29°37' W 095°01'0 0.0
2015-May-15 15:33N 29°37' W 095°01'0 0.0
2015-May-15 14:33N 29°37' W 095°01'0 0.0
2015-May-15 13:33N 29°37' W 095°01'0 0.0
2015-May-15 12:33N 29°37' W 095°01'0 0.0
2015-May-15 11:33N 29°37' W 095°01'0 0.0
2015-May-15 10:33N 29°37' W 095°01'0 0.0
2015-May-15 09:33N 29°37' W 095°01'0 0.0
2015-May-15 08:33N 29°37' W 095°01'0 0.0
2015-May-15 07:33N 29°37' W 095°01'0 0.0
2015-May-15 06:33N 29°37' W 095°01'0 0.0
2015-May-15 05:33N 29°37' W 095°01'0 0.0
2015-May-15 04:33N 29°37' W 095°01'0 0.0
2015-May-15 03:33N 29°37' W 095°01'0 0.0
2015-May-15 02:33N 29°37' W 095°01'0 0.0
2015-May-15 01:33N 29°37' W 095°01'0 0.0
2015-May-15 00:33N 29°37' W 095°01'0 0.0
2015-May-14 23:33N 29°37' W 095°01'0 0.0
2015-May-14 22:33N 29°37' W 095°01'0 0.0
2015-May-14 21:33N 29°37' W 095°01'0 0.0
2015-May-14 20:33N 29°37' W 095°01'0 0.0
2015-May-14 19:33N 29°37' W 095°01'0 0.0
2015-May-14 18:33N 29°37' W 095°01'0 0.0
2015-May-14 17:33N 29°37' W 095°01'5 5.4
2015-May-14 16:33N 29°34' W 094°56'  
2015-May-11 19:33N 29°34' W 094°55'6 6.6
2015-May-11 18:33N 29°40' W 094°59'6 5.6
2015-May-11 17:33N 29°44' W 095°03'  
Track history (hours):
 
Tides and Currents Weather Stations Pressure Air Temp Water Temp Dewpoint Dewpoint Depression Visibility Wind Speed Wind Dir Waves Ship Positions

St. Elmo

Owner: Marquette Transportation Company Gulf-Inland, LLC, Jefferson, LA. More information available from US FCC via Universal Licensing System and Coast Guard Vessel Documentation Center.

Last reported at 2015-May-21 01:33 UTC. Time now 2015-May-27 18:03 UTC.
Position N 29°35' W 094°56'.

; draft 3.2 m.

MMSI: 367515330.

Date/timePositionNaut miles runAvg speedWind from/ knotsBaromVisibWave heightAir tempDewpointWater temp
2015-May-21 01:33N 29°35' W 094°56'5 4.9
2015-May-21 00:33N 29°37' W 095°01'0 0.0
2015-May-20 23:33N 29°37' W 095°01'0 0.0
2015-May-20 22:33N 29°37' W 095°01'0 0.0
2015-May-20 21:33N 29°37' W 095°01'0 0.0
2015-May-20 20:33N 29°37' W 095°01'0 0.0
2015-May-20 19:31N 29°37' W 095°01'0 0.0
2015-May-20 18:33N 29°37' W 095°01'0 0.0
2015-May-20 17:33N 29°37' W 095°01'0 0.0
2015-May-20 16:23N 29°37' W 095°01'0 0.0
2015-May-20 15:33N 29°37' W 095°01'0 0.0
2015-May-20 14:33N 29°37' W 095°01'0 0.0
2015-May-20 13:33N 29°37' W 095°01'0 0.0
2015-May-20 12:33N 29°37' W 095°01'0 0.0
2015-May-20 11:33N 29°37' W 095°01'0 0.0
2015-May-20 10:33N 29°37' W 095°01'0 0.0
2015-May-20 09:33N 29°37' W 095°01'0 0.0
2015-May-20 08:33N 29°37' W 095°01'0 0.0
2015-May-20 07:33N 29°37' W 095°01'0 0.0
2015-May-20 06:33N 29°37' W 095°01'0 0.0
2015-May-20 05:33N 29°37' W 095°01'0 0.0
2015-May-20 04:33N 29°37' W 095°01'0 0.0
2015-May-20 03:33N 29°37' W 095°01'0 0.0
2015-May-20 02:33N 29°37' W 095°01'0 0.0
2015-May-20 01:33N 29°37' W 095°01'3 3.0
2015-May-20 00:33N 29°37' W 094°58'8 7.3
2015-May-19 23:27N 29°30' W 094°52'  
2015-May-16 22:27N 29°33' W 094°55'6 6.4
2015-May-16 21:33N 29°37' W 094°60'1 0.7
2015-May-16 19:33N 29°37' W 095°01'0 0.0
2015-May-16 18:33N 29°37' W 095°01'0 0.0
2015-May-16 17:33N 29°37' W 095°01'0 0.0
2015-May-16 16:33N 29°37' W 095°01'0 0.0
2015-May-16 15:33N 29°37' W 095°01'0 0.0
2015-May-16 14:33N 29°37' W 095°01'0 0.0
2015-May-16 13:33N 29°37' W 095°01'0 0.0
2015-May-16 12:33N 29°37' W 095°01'0 0.0
2015-May-16 11:33N 29°37' W 095°01'0 0.0
2015-May-16 10:33N 29°37' W 095°01'0 0.5
2015-May-16 09:33N 29°37' W 095°01'7 6.9
2015-May-16 08:33N 29°33' W 094°54'0 0.0
2015-May-16 00:06N 29°33' W 094°55'4 7.7
2015-May-15 23:33N 29°37' W 094°57'4 3.6
2015-May-15 22:33N 29°37' W 095°01'0 0.0
2015-May-15 21:33N 29°37' W 095°01'0 0.0
2015-May-15 20:33N 29°37' W 095°01'0 0.0
2015-May-15 19:33N 29°37' W 095°01'0 0.0
2015-May-15 18:32N 29°37' W 095°01'0 0.0
2015-May-15 17:33N 29°37' W 095°01'0 0.0
2015-May-15 16:33N 29°37' W 095°01'0 0.0
2015-May-15 15:33N 29°37' W 095°01'0 0.0
2015-May-15 14:33N 29°37' W 095°01'0 0.0
2015-May-15 13:33N 29°37' W 095°01'0 0.0
2015-May-15 12:33N 29°37' W 095°01'0 0.0
2015-May-15 11:33N 29°37' W 095°01'0 0.0
2015-May-15 10:33N 29°37' W 095°01'0 0.0
2015-May-15 09:33N 29°37' W 095°01'0 0.0
2015-May-15 08:33N 29°37' W 095°01'0 0.0
2015-May-15 07:33N 29°37' W 095°01'0 0.0
2015-May-15 06:33N 29°37' W 095°01'0 0.0
2015-May-15 05:33N 29°37' W 095°01'0 0.0
2015-May-15 04:33N 29°37' W 095°01'0 0.0
2015-May-15 03:33N 29°37' W 095°01'0 0.0
2015-May-15 02:33N 29°37' W 095°01'0 0.0
2015-May-15 01:33N 29°37' W 095°01'0 0.0
2015-May-15 00:33N 29°37' W 095°01'0 0.0
2015-May-14 23:33N 29°37' W 095°01'0 0.0
2015-May-14 22:33N 29°37' W 095°01'0 0.0
2015-May-14 21:33N 29°37' W 095°01'0 0.0
2015-May-14 20:33N 29°37' W 095°01'0 0.0
2015-May-14 19:33N 29°37' W 095°01'0 0.0
2015-May-14 18:33N 29°37' W 095°01'0 0.0
2015-May-14 17:33N 29°37' W 095°01'5 5.4
2015-May-14 16:33N 29°34' W 094°56'  
2015-May-11 19:33N 29°34' W 094°55'6 6.6
2015-May-11 18:33N 29°40' W 094°59'6 5.6
2015-May-11 17:33N 29°44' W 095°03'  

Dump ship's entire track history